Prospect, Connecticut
Current Conditions -  °F | °C
As of 4:53 PM on Monday 20 Oct 2014 (Local Time) from KMMK Reporting Station
Clear Clear  
Wind Chill: 55°   Ceiling: Unl
Heat Index: 55°   Visibility: 10mi
Dew Point: 37°   Wind: 10mph
Humidity: 51%   Direction: 200°SSW
Pressure: 29.99"   Gusts: NA
Location:  41.5°N, 72.98°W
Report Text: KMMK 202053Z AUTO 20009KT 10SM CLR 13/03 A2999 RMK AO2 SLP155 T01280028 TSNO
Loading
Personal Weather Stations






























Interactive Weather Map New forecast layout! Learn more

10-Day Weather Forecast

Advertisements
Track Severe Weather on mobile